Terminal Aerodrome Forecast
Issued by NWS

Home | Current Version | Previous Version | Text Only | Print | Product List | Glossary On
Versions: 1 2 3 4 5 6 7 8 9 10 11 12 13
000
FTUS46 KMFR 290540
TAFRBG
TAF
KRBG 290540Z 2906/3006 17003KT P6SM SCT040 OVC070
     FM291400 17003KT P6SM VCSH SCT025 OVC050
     FM291800 17006KT P6SM -RA SCT025 OVC050
     FM292100 19004KT 4SM RA BR BKN007 OVC015
     FM300100 20003KT P6SM -RA OVC015=

USA.gov is the U.S. government's official web portal to all federal, state and local government web resources and services.